Pagrindinis puslapis
METAR-TAF:

METAR-TAF

Oro uostai :

Vladikaukazas, Rusija

platuma: 43-12-18N, ilguma: 044-36-24E, Aukštis: 510 m

Dabartinis oras

Ataskaita buvo paskelbta 39 minutes, ne 10:30 UTC
Vėjas 4 kt iš Šiaurės/Šiaurės Rytų
Temperatūra 9°C
Drėgmė 71%
Slėgis 1025 hPa
Matomumas 10 km arba daugiau

METAR: URMO 271030Z 02002MPS 9999 NSC 09/04 Q1025 R09/010070 NOSIG RMK QFE725/0966

Laikas: 14:09 (11:09 UTC)

Prognozė

Ataskaita buvo paskelbta 3 valandos ir 9 minutes, ne 08:00 UTC
Prognozė galioja nuo 27 metu 09 UTC su 27 metu 18 UTC
Vėjas 6 kt iš Rytų su gūsio iki 16 kt
Matomumas 10 km arba daugiau
Su prošvaistėmis ne aukštis 1600 ft
Laikinai
nuo 27 metu 09 UTC su 27 metu 12 UTC
Su prošvaistėmis ne aukštis 600 ft

TAF: URMO 270800Z 2709/2718 08003G08MPS 9999 BKN016 TEMPO 2709/2712 BKN006

Orai ataskaitas ir orų prognozės (METAR, TAF).

turimą stotys yra geltonos ir raudonos taškus žemėlapyje.

Perkelti pele per norėdami pamatyti stoties vardą.

Tada spustelėkite, norėdami matyti oro stebėjimo ir prognozės.

Norėdami pakeisti žemėlapį: spustelėkite ant žalios mygtukų su juodo kryžiaus žemyn,; žalią mygtuką su brūkšneliu, jei norite nutolinti; arba žalių rodyklių gretimoms žemėlapius.


METAR-TAF: